createdAt,value
2018-04-19T00:00:38.335Z,44.50
2018-04-19T00:03:08.650Z,39.77
2018-04-19T00:05:42.609Z,37.90
2018-04-19T00:08:13.692Z,37.37
2018-04-19T00:10:44.033Z,36.37
2018-04-19T00:13:14.705Z,36.30
2018-04-19T00:15:45.052Z,39.43
2018-04-19T00:18:15.558Z,37.20
2018-04-19T00:20:45.960Z,41.03
2018-04-19T00:23:16.365Z,43.30
2018-04-19T00:25:46.776Z,46.03
2018-04-19T00:28:17.113Z,39.73
2018-04-19T00:33:46.021Z,39.63
2018-04-19T00:36:17.280Z,46.20
2018-04-19T00:38:47.657Z,49.30
2018-04-19T00:41:24.809Z,48.10
2018-04-19T00:43:55.257Z,38.40
2018-04-19T00:46:25.681Z,45.27
2018-04-19T00:48:56.012Z,44.03
2018-04-19T00:54:22.197Z,36.80
2018-04-19T00:56:52.564Z,43.57
2018-04-19T00:59:22.868Z,43.97
2018-04-19T01:04:53.858Z,46.97
2018-04-19T01:07:24.230Z,41.70
2018-04-19T01:09:54.788Z,46.00
2018-04-19T01:12:25.162Z,44.33
2018-04-19T01:14:56.261Z,46.60
2018-04-19T01:17:26.612Z,49.07
2018-04-19T01:19:56.940Z,46.63
2018-04-19T01:22:27.265Z,45.07
2018-04-19T01:24:57.694Z,49.27
2018-04-19T01:27:28.008Z,43.33
2018-04-19T01:29:58.452Z,45.50
2018-04-19T01:32:28.808Z,50.17
2018-04-19T01:34:59.653Z,43.30
2018-04-19T01:37:29.932Z,49.03
2018-04-19T01:40:00.322Z,52.47
2018-04-19T01:42:30.686Z,54.17
2018-04-19T01:45:01.073Z,50.93
2018-04-19T01:47:32.243Z,55.40
2018-04-19T01:50:04.093Z,52.73
2018-04-19T01:52:34.711Z,51.37
2018-04-19T01:55:05.281Z,56.50
2018-04-19T01:57:35.789Z,60.70
2018-04-19T02:00:06.994Z,57.43
2018-04-19T02:02:38.166Z,59.40
2018-04-19T02:05:08.686Z,54.27
2018-04-19T02:07:39.062Z,62.90
2018-04-19T02:10:09.579Z,60.33
2018-04-19T02:12:39.930Z,61.60
2018-04-19T02:15:27.096Z,58.47
2018-04-19T02:17:57.487Z,61.87
2018-04-19T02:20:27.868Z,60.33
2018-04-19T02:22:58.480Z,66.37
2018-04-19T02:25:29.737Z,68.90
2018-04-19T02:28:01.598Z,68.97
2018-04-19T02:30:32.010Z,73.27
2018-04-19T02:33:03.153Z,70.83
2018-04-19T02:35:33.980Z,72.17
2018-04-19T02:38:04.517Z,66.23
2018-04-19T02:40:34.845Z,62.20
2018-04-19T02:43:05.294Z,71.70
2018-04-19T02:45:35.687Z,74.27
2018-04-19T02:48:06.237Z,62.97
2018-04-19T02:50:36.732Z,76.27
2018-04-19T02:53:07.118Z,65.50
2018-04-19T02:58:38.277Z,62.47
2018-04-19T03:01:08.670Z,64.53
2018-04-19T03:03:39.215Z,62.37
2018-04-19T03:06:10.495Z,60.80
2018-04-19T03:08:40.900Z,57.83
2018-04-19T03:11:11.249Z,70.60
2018-04-19T03:13:41.701Z,57.30
2018-04-19T03:16:12.187Z,63.10
2018-04-19T03:18:42.687Z,66.60
2018-04-19T03:21:13.095Z,67.97
2018-04-19T03:23:43.539Z,62.47
2018-04-19T03:26:14.374Z,75.47
2018-04-19T03:28:45.952Z,60.90
2018-04-19T03:31:17.066Z,73.20
2018-04-19T03:33:47.693Z,64.43
2018-04-19T03:39:17.398Z,70.60
2018-04-19T03:41:47.786Z,62.03
2018-04-19T03:44:18.181Z,66.03
2018-04-19T03:46:48.552Z,72.03
2018-04-19T03:49:18.905Z,73.67
2018-04-19T03:52:03.661Z,70.93
2018-04-19T03:54:34.067Z,68.00
2018-04-19T03:57:04.649Z,62.00
2018-04-19T03:59:35.074Z,62.53
2018-04-19T04:02:06.749Z,60.70
2018-04-19T04:04:37.247Z,61.70
2018-04-19T04:07:07.766Z,57.83
2018-04-19T04:09:38.288Z,68.23
2018-04-19T04:12:08.991Z,70.17
2018-04-19T04:14:39.481Z,67.63
2018-04-19T04:21:31.694Z,70.20
2018-04-19T04:24:02.233Z,63.57
2018-04-19T04:26:32.998Z,61.50
2018-04-19T04:29:03.477Z,55.90
2018-04-19T04:31:34.100Z,60.60
2018-04-19T04:34:05.343Z,62.00
2018-04-19T04:36:35.878Z,68.23
2018-04-19T04:39:07.801Z,58.57
2018-04-19T04:41:51.237Z,54.80
2018-04-19T04:44:22.094Z,59.03
2018-04-19T04:46:52.669Z,58.50
2018-04-19T04:49:29.149Z,48.57
2018-04-19T04:52:00.540Z,63.30
2018-04-19T04:54:30.986Z,58.40
2018-04-19T04:57:01.509Z,60.93
2018-04-19T04:59:32.115Z,58.97
2018-04-19T05:02:02.637Z,59.30
2018-04-19T05:04:33.892Z,58.23
2018-04-19T05:07:04.726Z,59.30
2018-04-19T05:09:36.113Z,59.20
2018-04-19T05:12:07.666Z,61.97
2018-04-19T05:14:38.494Z,63.70
2018-04-19T05:17:09.053Z,64.70
2018-04-19T05:19:39.642Z,56.97
2018-04-19T05:22:10.131Z,55.57
2018-04-19T05:24:40.658Z,59.20
2018-04-19T05:27:11.382Z,63.77
2018-04-19T05:29:41.854Z,63.10
2018-04-19T05:32:12.328Z,58.27
2018-04-19T05:34:42.763Z,58.83
2018-04-19T05:39:34.535Z,64.37
2018-04-19T05:42:05.500Z,56.80
2018-04-19T05:44:37.748Z,59.33
2018-04-19T05:47:09.059Z,55.40
2018-04-19T05:49:39.871Z,54.50
2018-04-19T05:52:10.879Z,56.60
2018-04-19T05:54:41.809Z,48.53
2018-04-19T05:57:13.285Z,51.87
2018-04-19T05:59:44.222Z,56.30
2018-04-19T06:02:15.246Z,49.67
2018-04-19T06:04:45.858Z,57.20
2018-04-19T06:07:16.838Z,47.40
2018-04-19T06:09:49.538Z,52.17
2018-04-19T06:12:20.387Z,46.63
2018-04-19T06:14:52.142Z,50.60
2018-04-19T06:17:23.062Z,50.53
2018-04-19T06:19:54.506Z,53.90
2018-04-19T06:22:25.491Z,48.57
2018-04-19T06:24:56.408Z,54.60
2018-04-19T06:27:27.335Z,45.13
2018-04-19T06:29:58.442Z,46.87
2018-04-19T06:32:29.783Z,44.93
2018-04-19T06:35:00.589Z,45.37
2018-04-19T06:37:31.110Z,44.20
2018-04-19T06:40:01.940Z,41.40
2018-04-19T06:42:33.338Z,51.70
2018-04-19T06:45:04.356Z,44.83
2018-04-19T06:47:35.345Z,45.27
2018-04-19T06:50:06.223Z,41.70
2018-04-19T06:52:37.854Z,40.93
2018-04-19T06:55:08.970Z,40.00
2018-04-19T06:57:40.023Z,39.50
2018-04-19T07:00:10.846Z,42.00
2018-04-19T07:02:42.254Z,46.30
2018-04-19T07:05:13.074Z,39.90
2018-04-19T07:07:44.621Z,43.17
2018-04-19T07:10:15.508Z,39.57
2018-04-19T07:12:47.248Z,42.70
2018-04-19T07:15:18.077Z,35.40
2018-04-19T07:17:48.975Z,37.30
2018-04-19T07:20:20.817Z,36.20
2018-04-19T07:22:52.533Z,33.70
2018-04-19T07:25:23.474Z,37.20
2018-04-19T07:27:54.636Z,35.50
2018-04-19T07:30:25.392Z,33.10
2018-04-19T07:32:56.474Z,35.70
2018-04-19T07:35:27.466Z,36.07
2018-04-19T07:37:58.546Z,32.00
2018-04-19T07:40:29.406Z,38.50
2018-04-19T07:43:00.567Z,31.43
2018-04-19T07:45:31.923Z,32.80
2018-04-19T07:48:02.777Z,32.57
2018-04-19T07:50:33.543Z,37.73
2018-04-19T07:53:04.530Z,37.90
2018-04-19T07:55:36.205Z,29.23
2018-04-19T07:58:07.950Z,31.33
2018-04-19T08:00:38.782Z,34.40
2018-04-19T08:03:10.159Z,27.77
2018-04-19T08:05:41.089Z,27.13
2018-04-19T08:08:11.823Z,28.87
2018-04-19T08:10:44.084Z,29.13
2018-04-19T08:13:14.850Z,31.73
2018-04-19T08:15:45.679Z,30.40
2018-04-19T08:18:16.942Z,24.97
2018-04-19T08:20:48.152Z,24.50
2018-04-19T08:23:19.483Z,28.50
2018-04-19T08:25:50.463Z,27.03
2018-04-19T08:28:21.122Z,28.37
2018-04-19T08:30:52.752Z,24.03
2018-04-19T08:33:23.845Z,21.50
2018-04-19T08:35:55.527Z,29.30
2018-04-19T08:38:26.291Z,22.63
2018-04-19T08:40:57.149Z,22.90
2018-04-19T08:43:28.271Z,25.33
2018-04-19T08:45:59.947Z,24.50
2018-04-19T08:48:31.424Z,20.40
2018-04-19T08:51:02.288Z,20.70
2018-04-19T08:53:33.278Z,23.83
2018-04-19T08:56:04.087Z,20.37
2018-04-19T08:58:35.643Z,19.60
2018-04-19T09:01:06.395Z,20.23
2018-04-19T09:03:37.487Z,19.50
2018-04-19T09:06:09.148Z,21.70
2018-04-19T09:08:40.043Z,22.80
2018-04-19T09:11:11.659Z,20.60
2018-04-19T09:13:42.654Z,23.50
2018-04-19T09:16:15.645Z,23.93
2018-04-19T09:18:47.528Z,17.67
2018-04-19T09:21:18.554Z,17.87
2018-04-19T09:23:49.594Z,23.20
2018-04-19T09:26:20.599Z,17.27
2018-04-19T09:28:51.466Z,15.53
2018-04-19T09:31:22.478Z,26.63
2018-04-19T09:33:53.542Z,14.73
2018-04-19T09:36:24.448Z,12.33
2018-04-19T09:38:58.155Z,12.37
2018-04-19T09:41:29.171Z,14.43
2018-04-19T09:43:59.714Z,12.80
2018-04-19T09:46:30.608Z,11.17
2018-04-19T09:49:02.643Z,12.93
2018-04-19T09:51:33.515Z,11.47
2018-04-19T09:54:04.787Z,15.97
2018-04-19T09:56:35.483Z,13.43
2018-04-19T09:59:12.547Z,13.90
2018-04-19T10:01:48.582Z,13.73
2018-04-19T10:04:23.662Z,10.13
2018-04-19T10:06:54.812Z,13.80
2018-04-19T10:09:25.665Z,13.50
2018-04-19T10:11:56.469Z,12.63
2018-04-19T10:14:27.301Z,12.30
2018-04-19T10:16:58.153Z,20.13
2018-04-19T10:19:29.952Z,9.73
2018-04-19T10:22:00.952Z,13.10
2018-04-19T10:24:31.825Z,10.40
2018-04-19T10:27:03.038Z,8.70
2018-04-19T10:29:33.809Z,9.33
2018-04-19T10:32:04.954Z,12.93
2018-04-19T10:34:35.750Z,11.23
2018-04-19T10:37:07.259Z,11.80
2018-04-19T10:39:38.310Z,8.60
2018-04-19T10:42:09.127Z,10.43
2018-04-19T10:44:41.423Z,8.70
2018-04-19T10:47:12.400Z,12.20
2018-04-19T10:49:43.087Z,7.33
2018-04-19T10:52:15.704Z,8.47
2018-04-19T10:54:47.586Z,16.63
2018-04-19T10:57:18.502Z,8.10
2018-04-19T10:59:49.458Z,15.53
2018-04-19T11:02:20.595Z,13.20
2018-04-19T11:04:51.463Z,11.30
2018-04-19T11:07:22.284Z,8.13
2018-04-19T11:09:53.554Z,11.33
2018-04-19T11:12:24.759Z,12.57
2018-04-19T11:14:55.481Z,11.10
2018-04-19T11:17:28.282Z,8.40
2018-04-19T11:19:59.145Z,9.40
2018-04-19T11:22:30.298Z,7.63
2018-04-19T11:25:00.897Z,9.20
2018-04-19T11:27:32.742Z,8.63
2018-04-19T11:30:03.331Z,8.53
2018-04-19T11:32:34.882Z,12.23
2018-04-19T11:35:05.897Z,8.63
2018-04-19T11:37:36.920Z,8.20
2018-04-19T11:40:07.960Z,10.67
2018-04-19T11:42:38.744Z,14.70
2018-04-19T11:45:09.327Z,9.60
2018-04-19T11:47:40.502Z,9.90
2018-04-19T11:50:11.854Z,7.93
2018-04-19T11:52:43.192Z,7.33
2018-04-19T11:55:14.119Z,10.70
2018-04-19T11:57:44.908Z,6.67
2018-04-19T12:00:17.038Z,6.70
2018-04-19T12:02:48.759Z,10.33
2018-04-19T12:05:20.144Z,8.90
2018-04-19T12:07:51.146Z,15.73
2018-04-19T12:10:21.999Z,13.20
2018-04-19T12:12:52.580Z,16.23
2018-04-19T12:15:23.381Z,18.83
2018-04-19T12:17:54.384Z,16.03
2018-04-19T12:20:25.455Z,12.13
2018-04-19T12:22:57.535Z,15.33
2018-04-19T12:25:28.418Z,11.43
2018-04-19T12:27:59.386Z,14.53
2018-04-19T12:30:30.409Z,11.27
2018-04-19T12:33:01.427Z,16.40
2018-04-19T12:35:32.126Z,13.87
2018-04-19T12:38:03.117Z,11.90
2018-04-19T12:40:34.107Z,10.90
2018-04-19T12:43:04.901Z,12.90
2018-04-19T12:45:36.995Z,12.87
2018-04-19T12:48:07.747Z,13.83
2018-04-19T12:50:38.544Z,9.23
2018-04-19T12:53:09.236Z,8.17
2018-04-19T12:55:40.163Z,11.50
2018-04-19T12:58:11.396Z,11.20
2018-04-19T13:00:42.397Z,14.20
2018-04-19T13:03:13.956Z,12.83
2018-04-19T13:05:44.650Z,15.20
2018-04-19T13:08:15.873Z,9.10
2018-04-19T13:10:46.886Z,14.30
2018-04-19T13:13:18.563Z,16.43
2018-04-19T13:15:49.571Z,9.53
2018-04-19T13:18:20.424Z,12.07
2018-04-19T13:20:51.364Z,12.27
2018-04-19T13:23:22.223Z,9.33
2018-04-19T13:25:53.022Z,10.60
2018-04-19T13:28:24.548Z,9.90
2018-04-19T13:30:56.468Z,13.27
2018-04-19T13:33:28.638Z,10.93
2018-04-19T13:35:59.587Z,11.40
2018-04-19T13:38:30.854Z,12.77
2018-04-19T13:41:01.927Z,9.10
2018-04-19T13:43:32.802Z,10.43
2018-04-19T13:46:03.887Z,12.90
2018-04-19T13:48:36.134Z,12.00
2018-04-19T13:51:06.922Z,12.00
2018-04-19T13:53:37.939Z,12.80
2018-04-19T13:56:08.782Z,11.40
2018-04-19T13:58:39.653Z,10.50
2018-04-19T14:01:10.840Z,15.03
2018-04-19T14:03:42.110Z,10.07
2018-04-19T14:06:12.710Z,8.87
2018-04-19T14:08:43.495Z,9.23
2018-04-19T14:11:15.630Z,15.50
2018-04-19T14:13:46.322Z,7.37
2018-04-19T14:16:18.167Z,6.47
2018-04-19T14:18:50.398Z,10.33
2018-04-19T14:21:21.567Z,7.60
2018-04-19T14:23:52.559Z,11.37
2018-04-19T14:26:23.504Z,6.50
2018-04-19T14:28:54.424Z,7.33
2018-04-19T14:31:25.475Z,5.70
2018-04-19T14:33:56.683Z,5.30
2018-04-19T14:36:27.579Z,5.13
2018-04-19T14:38:58.306Z,6.87
2018-04-19T14:41:29.303Z,7.23
2018-04-19T14:43:59.965Z,10.23
2018-04-19T14:46:31.636Z,6.90
2018-04-19T14:49:02.756Z,5.90
2018-04-19T14:51:33.614Z,6.70
2018-04-19T14:54:04.674Z,8.13
2018-04-19T14:56:35.507Z,4.93
2018-04-19T14:59:07.869Z,7.23
2018-04-19T15:01:38.514Z,7.00
2018-04-19T15:04:09.528Z,6.13
2018-04-19T15:06:40.882Z,6.80
2018-04-19T15:09:11.818Z,10.23
2018-04-19T15:11:43.731Z,8.77
2018-04-19T15:14:21.943Z,6.57
2018-04-19T15:16:57.937Z,8.80
2018-04-19T15:19:28.919Z,8.03
2018-04-19T15:22:00.573Z,6.90
2018-04-19T15:24:31.283Z,8.80
2018-04-19T15:27:07.835Z,11.93
2018-04-19T15:29:38.505Z,11.60
2018-04-19T15:32:11.085Z,11.53
2018-04-19T15:34:42.606Z,11.63
2018-04-19T15:37:14.889Z,10.80
2018-04-19T15:39:45.730Z,9.13
2018-04-19T15:42:17.814Z,8.83
2018-04-19T15:44:48.948Z,16.73
2018-04-19T15:47:19.642Z,9.40
2018-04-19T15:49:51.502Z,11.03
2018-04-19T15:52:22.370Z,11.00
2018-04-19T15:54:54.486Z,9.53
2018-04-19T15:57:27.577Z,18.67
2018-04-19T15:59:59.850Z,9.77
2018-04-19T16:02:31.160Z,16.03
2018-04-19T16:05:04.589Z,8.50
2018-04-19T16:07:35.913Z,12.13
2018-04-19T16:10:07.264Z,6.90
2018-04-19T16:12:37.831Z,9.67
2018-04-19T16:15:08.738Z,8.37
2018-04-19T16:17:39.826Z,9.70
2018-04-19T16:20:10.827Z,6.37
2018-04-19T16:22:41.800Z,11.40
2018-04-19T16:25:12.590Z,9.77
2018-04-19T16:27:43.967Z,7.70
2018-04-19T16:30:14.870Z,6.97
2018-04-19T16:32:45.789Z,10.83
2018-04-19T16:35:16.674Z,8.10
2018-04-19T16:37:48.179Z,10.90
2018-04-19T16:40:19.266Z,7.37
2018-04-19T16:42:50.211Z,10.30
2018-04-19T16:45:21.076Z,6.30
2018-04-19T16:47:51.845Z,9.43
2018-04-19T16:50:23.164Z,8.00
2018-04-19T16:52:55.219Z,9.97
2018-04-19T16:55:26.033Z,8.10
2018-04-19T16:58:01.160Z,9.33
2018-04-19T17:00:37.384Z,6.60
2018-04-19T17:03:08.998Z,8.67
2018-04-19T17:05:41.556Z,10.93
2018-04-19T17:08:12.596Z,11.63
2018-04-19T17:10:44.038Z,9.60
2018-04-19T17:13:15.189Z,10.57
2018-04-19T17:15:47.134Z,7.73
2018-04-19T17:18:18.044Z,9.27
2018-04-19T17:20:49.034Z,8.67
2018-04-19T17:23:20.357Z,9.80
2018-04-19T17:25:51.261Z,8.03
2018-04-19T17:28:22.165Z,9.63
2018-04-19T17:30:53.498Z,11.03
2018-04-19T17:33:24.300Z,14.73
2018-04-19T17:35:55.426Z,16.63
2018-04-19T17:38:26.886Z,15.27
2018-04-19T17:40:57.902Z,13.57
2018-04-19T17:43:29.052Z,12.00
2018-04-19T17:45:59.982Z,10.93
2018-04-19T17:48:31.009Z,19.23
2018-04-19T17:51:01.771Z,17.13
2018-04-19T17:53:32.847Z,13.07
2018-04-19T17:56:05.838Z,12.70
2018-04-19T17:58:37.258Z,15.87
2018-04-19T18:01:08.173Z,16.03
2018-04-19T18:03:39.074Z,12.13
2018-04-19T18:06:11.416Z,13.47
2018-04-19T18:08:42.015Z,18.53
2018-04-19T18:11:12.881Z,15.10
2018-04-19T18:13:44.161Z,13.90
2018-04-19T18:16:14.825Z,13.90
2018-04-19T18:18:45.460Z,16.00
2018-04-19T18:21:16.590Z,16.80
2018-04-19T18:23:48.407Z,13.90
2018-04-19T18:26:20.287Z,17.50
2018-04-19T18:28:53.203Z,17.10
2018-04-19T18:31:24.260Z,14.00
2018-04-19T18:33:54.886Z,20.93
2018-04-19T18:36:26.584Z,16.67
2018-04-19T18:38:57.858Z,14.13
2018-04-19T18:41:29.090Z,15.10
2018-04-19T18:44:00.648Z,13.10
2018-04-19T18:46:31.317Z,19.57
2018-04-19T18:49:02.627Z,15.37
2018-04-19T18:51:35.308Z,13.80
2018-04-19T18:54:06.090Z,17.90
2018-04-19T18:56:36.914Z,16.77
2018-04-19T18:59:09.280Z,16.67
2018-04-19T19:01:40.183Z,15.83
2018-04-19T19:04:10.854Z,18.10
2018-04-19T19:06:41.690Z,16.40
2018-04-19T19:09:12.590Z,17.13
2018-04-19T19:11:43.420Z,19.67
2018-04-19T19:14:15.901Z,26.97
2018-04-19T19:16:46.844Z,20.80
2018-04-19T19:19:28.408Z,20.17
2018-04-19T19:21:59.349Z,19.40
2018-04-19T19:24:30.175Z,15.50
2018-04-19T19:27:01.601Z,18.43
2018-04-19T19:29:32.415Z,19.90
2018-04-19T19:32:03.327Z,24.93
2018-04-19T19:34:34.801Z,20.40
2018-04-19T19:37:06.455Z,23.40
2018-04-19T19:39:37.421Z,25.33
2018-04-19T19:42:09.524Z,25.03
2018-04-19T19:44:41.571Z,27.03
2018-04-19T19:47:12.505Z,23.40
2018-04-19T19:49:43.164Z,25.90
2018-04-19T19:52:14.396Z,27.60
2018-04-19T19:54:46.888Z,27.83
2018-04-19T19:57:17.758Z,30.77
2018-04-19T19:59:48.922Z,34.20
2018-04-19T20:02:19.878Z,28.70
2018-04-19T20:04:51.222Z,42.80
2018-04-19T20:07:22.866Z,36.27
2018-04-19T20:09:55.078Z,43.10
2018-04-19T20:12:26.261Z,33.00
2018-04-19T20:14:57.081Z,34.43
2018-04-19T20:17:28.099Z,37.50
2018-04-19T20:19:58.923Z,34.10
2018-04-19T20:22:29.578Z,38.73
2018-04-19T20:25:00.414Z,41.57
2018-04-19T20:27:31.839Z,35.90
2018-04-19T20:30:02.901Z,38.90
2018-04-19T20:32:33.544Z,35.93
2018-04-19T20:35:04.450Z,32.23
2018-04-19T20:37:35.562Z,33.63
2018-04-19T20:40:07.290Z,37.03
2018-04-19T20:42:43.750Z,36.87
2018-04-19T20:45:14.580Z,35.70
2018-04-19T20:47:45.564Z,39.43
2018-04-19T20:50:16.306Z,42.00
2018-04-19T20:52:47.578Z,41.07
2018-04-19T20:55:18.446Z,37.03
2018-04-19T20:57:49.415Z,41.27
2018-04-19T21:00:20.444Z,40.70
2018-04-19T21:02:51.628Z,39.40
2018-04-19T21:05:22.375Z,39.57
2018-04-19T21:07:53.306Z,39.97
2018-04-19T21:10:24.519Z,36.93
2018-04-19T21:12:55.614Z,40.23
2018-04-19T21:15:26.767Z,42.27
2018-04-19T21:17:57.454Z,44.80
2018-04-19T21:20:29.342Z,40.87
2018-04-19T21:23:00.754Z,37.53
2018-04-19T21:25:31.834Z,39.37
2018-04-19T21:28:02.406Z,38.23
2018-04-19T21:30:33.854Z,37.67
2018-04-19T21:33:04.670Z,39.80
2018-04-19T21:35:35.390Z,38.33
2018-04-19T21:38:07.570Z,38.33
2018-04-19T21:40:38.560Z,35.93
2018-04-19T21:43:09.285Z,36.67
2018-04-19T21:45:40.832Z,34.13
2018-04-19T21:48:12.079Z,42.03
2018-04-19T21:50:43.058Z,36.90
2018-04-19T21:53:15.179Z,35.60
2018-04-19T21:55:47.059Z,39.23
2018-04-19T21:58:18.218Z,37.40
2018-04-19T22:00:49.457Z,38.47
2018-04-19T22:03:20.386Z,38.27
2018-04-19T22:05:51.197Z,39.50
2018-04-19T22:08:22.087Z,37.30
2018-04-19T22:10:53.548Z,35.13
2018-04-19T22:13:25.002Z,38.13
2018-04-19T22:15:55.741Z,36.33
2018-04-19T22:18:26.837Z,36.17
2018-04-19T22:20:58.700Z,36.40
2018-04-19T22:23:29.662Z,33.87
2018-04-19T22:26:01.179Z,34.90
2018-04-19T22:28:32.022Z,31.93
2018-04-19T22:31:03.103Z,34.63
2018-04-19T22:33:34.403Z,33.53
2018-04-19T22:36:05.347Z,35.80
2018-04-19T22:38:36.362Z,34.50
2018-04-19T22:41:07.177Z,33.77
2018-04-19T22:43:38.646Z,40.23
2018-04-19T22:46:09.303Z,38.23
2018-04-19T22:48:41.194Z,34.60
2018-04-19T22:51:12.367Z,40.57
2018-04-19T22:53:43.298Z,35.93
2018-04-19T22:56:14.236Z,36.40
2018-04-19T22:58:46.278Z,35.33
2018-04-19T23:01:17.177Z,37.77
2018-04-19T23:03:48.876Z,42.10
2018-04-19T23:06:20.322Z,35.43
2018-04-19T23:08:51.248Z,39.27
2018-04-19T23:11:22.123Z,33.83
2018-04-19T23:13:55.070Z,32.70
2018-04-19T23:16:26.679Z,34.83
2018-04-19T23:18:58.402Z,33.30
2018-04-19T23:21:29.582Z,33.20
2018-04-19T23:24:00.462Z,30.20
2018-04-19T23:26:31.499Z,38.40
2018-04-19T23:29:02.873Z,35.10
2018-04-19T23:31:33.785Z,31.73
2018-04-19T23:34:04.629Z,35.57
2018-04-19T23:36:35.913Z,32.77
2018-04-19T23:39:07.783Z,33.93
2018-04-19T23:41:38.611Z,33.10
2018-04-19T23:44:10.103Z,32.73
2018-04-19T23:46:40.816Z,37.80
2018-04-19T23:49:11.856Z,33.47
2018-04-19T23:51:43.880Z,32.23
2018-04-19T23:54:14.784Z,33.93
2018-04-19T23:56:45.500Z,34.40
2018-04-19T23:59:16.475Z,34.20
